Time;durP1;ratioP1;P1;durP2;ratioP2;P2;SDS_P1;SDS_P2;PMS_P1;PMS_P2;Temp;Humidity;BMP_temperature;BMP_pressure;BME280_temperature;BME280_humidity;BME280_pressure;Samples;Min_cycle;Max_cycle;Signal;HPM_P1;HPM_P2
2023/03/25 00:00:17;;;;;;;13.02;3.65;;;10.30;99.90;;;;;;6180876;23;20013;-82
2023/03/25 00:02:49;;;;;;;12.73;4.13;;;10.40;99.90;;;;;;6181544;23;20075;-82
2023/03/25 00:05:15;;;;;;;;;;;10.40;99.90;;;;;;6180313;23;20430;-83
2023/03/25 00:07:42;;;;;;;15.50;3.97;;;10.40;99.90;;;;;;6182318;23;19916;-82
2023/03/25 00:10:09;;;;;;;13.15;4.15;;;10.50;99.90;;;;;;6182191;23;20017;-82
2023/03/25 00:12:35;;;;;;;13.07;3.22;;;10.40;99.90;;;;;;6155887;23;20017;-82
2023/03/25 00:15:00;;;;;;;12.10;3.15;;;10.50;99.90;;;;;;6181206;23;20476;-83
2023/03/25 00:17:27;;;;;;;13.27;3.80;;;10.50;99.90;;;;;;6182075;23;20021;-82
2023/03/25 00:19:59;;;;;;;11.20;3.60;;;10.50;99.90;;;;;;6182162;23;20466;-82
2023/03/25 00:22:25;;;;;;;11.38;3.38;;;10.40;99.90;;;;;;6180422;23;20040;-82
2023/03/25 00:24:51;;;;;;;11.57;3.50;;;10.50;99.90;;;;;;6182148;23;20084;-82
2023/03/25 00:27:17;;;;;;;13.95;3.80;;;10.50;99.90;;;;;;6179052;23;20045;-82
2023/03/25 00:29:44;;;;;;;13.77;3.85;;;10.40;99.90;;;;;;6180462;23;20013;-82
2023/03/25 00:32:11;;;;;;;12.55;3.13;;;10.40;99.90;;;;;;6181367;23;20020;-82
2023/03/25 00:34:40;;;;;;;13.27;3.33;;;10.40;99.90;;;;;;6180059;23;20091;-83
2023/03/25 00:37:09;;;;;;;12.63;3.47;;;10.40;99.90;;;;;;6178833;23;20048;-83
2023/03/25 00:39:36;;;;;;;10.20;2.67;;;10.30;99.90;;;;;;6181892;23;20312;-82
2023/03/25 00:42:03;;;;;;;11.98;3.58;;;10.30;99.90;;;;;;6181830;23;20075;-82
2023/03/25 00:44:29;;;;;;;11.35;3.30;;;10.20;99.90;;;;;;6181114;23;20045;-82
2023/03/25 00:46:54;;;;;;;11.23;3.30;;;10.20;99.90;;;;;;6155281;23;20032;-83
2023/03/25 00:49:23;;;;;;;9.70;3.70;;;10.20;99.90;;;;;;6155155;23;20021;-82
2023/03/25 00:51:50;;;;;;;13.75;3.35;;;10.10;99.90;;;;;;6155341;23;20013;-82
2023/03/25 00:54:17;;;;;;;10.68;3.22;;;10.00;99.90;;;;;;6154983;23;20013;-82
2023/03/25 00:56:43;;;;;;;11.95;3.47;;;10.00;99.90;;;;;;6157698;23;20009;-83
2023/03/25 00:59:09;;;;;;;11.52;3.88;;;9.90;99.90;;;;;;6181621;23;20021;-83
2023/03/25 01:01:38;;;;;;;11.93;3.90;;;9.80;99.90;;;;;;6180413;23;20012;-82
2023/03/25 01:04:10;;;;;;;8.88;3.50;;;9.80;99.90;;;;;;6154601;23;20048;-82
2023/03/25 01:06:40;;;;;;;10.15;4.53;;;9.80;99.90;;;;;;6154488;23;20013;-83
2023/03/25 01:09:08;;;;;;;12.02;4.90;;;9.70;99.90;;;;;;6181981;23;20019;-83
2023/03/25 01:11:36;;;;;;;13.02;5.47;;;9.70;99.90;;;;;;6180646;23;20330;-82
2023/03/25 01:14:04;;;;;;;11.43;4.95;;;9.60;99.90;;;;;;6154323;23;20009;-82
2023/03/25 01:16:30;;;;;;;10.98;5.85;;;9.60;99.90;;;;;;6180407;23;20950;-82
2023/03/25 01:18:56;;;;;;;11.07;5.70;;;9.60;99.90;;;;;;6153491;23;20028;-81
2023/03/25 01:21:22;;;;;;;13.02;5.80;;;9.60;99.90;;;;;;6154671;23;20108;-82
2023/03/25 01:23:48;;;;;;;11.15;5.55;;;9.60;99.90;;;;;;6183025;23;20095;-83
2023/03/25 01:26:14;;;;;;;13.98;5.38;;;9.60;99.90;;;;;;6130892;23;20013;-82
2023/03/25 01:28:41;;;;;;;11.75;5.38;;;9.50;99.90;;;;;;6156972;23;20342;-82
2023/03/25 01:31:09;;;;;;;12.25;5.40;;;9.50;99.90;;;;;;6156550;23;20416;-83
2023/03/25 01:33:34;;;;;;;13.98;4.85;;;9.50;99.90;;;;;;6158611;23;20024;-82
2023/03/25 01:36:01;;;;;;;13.77;4.55;;;9.50;99.90;;;;;;6157759;23;20021;-82
2023/03/25 01:38:29;;;;;;;10.70;4.35;;;9.50;99.90;;;;;;6182694;23;20017;-82
2023/03/25 01:40:55;;;;;;;11.02;4.40;;;9.40;99.90;;;;;;6182186;23;20295;-82
2023/03/25 01:43:22;;;;;;;14.85;5.32;;;9.50;99.90;;;;;;6154896;23;20019;-82
2023/03/25 01:45:49;;;;;;;16.23;5.13;;;9.50;99.90;;;;;;6183291;23;20079;-82
2023/03/25 01:48:35;;;;;;;14.43;5.57;;;9.40;99.90;;;;;;6180174;23;20052;-81
2023/03/25 01:51:09;;;;;;;14.73;5.75;;;9.50;99.90;;;;;;6184003;23;20446;-81
2023/03/25 01:53:35;;;;;;;16.20;5.50;;;9.40;99.90;;;;;;6182434;23;20021;-82
2023/03/25 01:56:04;;;;;;;14.05;5.38;;;9.40;99.90;;;;;;6154588;23;20013;-82
2023/03/25 01:58:32;;;;;;;16.48;5.28;;;9.30;99.90;;;;;;6155333;23;20016;-81
2023/03/25 02:01:00;;;;;;;15.07;5.30;;;9.30;99.90;;;;;;6182752;23;20013;-81
2023/03/25 02:03:26;;;;;;;15.25;5.30;;;9.30;99.90;;;;;;6184230;23;20016;-82
2023/03/25 02:06:04;;;;;;;15.88;5.25;;;9.30;99.90;;;;;;6160087;23;20047;-80
2023/03/25 02:08:37;;;;;;;14.05;4.95;;;9.30;99.90;;;;;;6157261;23;20234;-82
2023/03/25 02:11:04;;;;;;;13.70;4.95;;;9.20;99.90;;;;;;6183716;23;20009;-82
2023/03/25 02:13:31;;;;;;;19.67;6.30;;;9.20;99.90;;;;;;6182368;23;20354;-82
2023/03/25 02:16:19;;;;;;;14.98;5.65;;;9.10;99.90;;;;;;6155205;23;20017;-82
2023/03/25 02:18:50;;;;;;;15.77;4.88;;;9.10;99.90;;;;;;6180674;23;20024;-81
2023/03/25 02:21:48;;;;;;;14.95;5.40;;;9.10;99.90;;;;;;6180310;23;20074;-82
2023/03/25 02:24:36;;;;;;;17.50;5.32;;;9.10;99.90;;;;;;6180371;23;20013;-82
2023/03/25 02:27:32;;;;;;;17.05;5.30;;;9.10;99.90;;;;;;6153639;23;20013;-82
2023/03/25 02:30:35;;;;;;;16.67;6.00;;;9.00;99.90;;;;;;6153191;23;20067;-82
2023/03/25 02:33:27;;;;;;;16.52;5.47;;;9.00;99.90;;;;;;6180007;23;20096;-82
2023/03/25 02:36:30;;;;;;;18.52;5.60;;;8.90;99.90;;;;;;6180280;23;20013;-82
2023/03/25 02:39:13;;;;;;;16.27;5.00;;;9.00;99.90;;;;;;6180241;23;20092;-82
2023/03/25 02:41:50;;;;;;;14.65;4.88;;;9.00;99.90;;;;;;6127518;23;20080;-82
2023/03/25 02:44:42;;;;;;;16.70;4.35;;;9.00;99.90;;;;;;6154730;23;20049;-82
2023/03/25 02:47:14;;;;;;;19.73;5.18;;;9.00;99.90;;;;;;6178687;23;20020;-82
2023/03/25 02:49:48;;;;;;;16.80;5.05;;;8.90;99.90;;;;;;6179378;23;20075;-81
2023/03/25 02:52:16;;;;;;;14.63;4.63;;;9.00;99.90;;;;;;6176155;23;20020;-81
2023/03/25 02:54:46;;;;;;;17.15;4.93;;;9.00;99.90;;;;;;6180777;23;20327;-81
2023/03/25 02:57:16;;;;;;;9.53;2.20;;;8.90;99.90;;;;;;6179663;23;20015;-81
2023/03/25 02:59:45;;;;;;;15.27;4.75;;;8.90;99.90;;;;;;6179784;23;20067;-82
2023/03/25 03:02:10;;;;;;;14.45;4.63;;;8.90;99.90;;;;;;6179720;23;20074;-82
2023/03/25 03:04:49;;;;;;;19.48;5.80;;;8.90;99.90;;;;;;6178949;23;20440;-82
2023/03/25 03:07:21;;;;;;;16.40;5.28;;;8.90;99.90;;;;;;6179314;23;20060;-82
2023/03/25 03:09:54;;;;;;;17.63;4.88;;;9.00;99.90;;;;;;6182736;23;20072;-81
2023/03/25 03:12:23;;;;;;;15.15;4.90;;;9.10;99.90;;;;;;6180692;23;20444;-82
2023/03/25 03:15:00;;;;;;;16.95;5.05;;;9.10;99.90;;;;;;6182405;23;20013;-81
2023/03/25 03:17:50;;;;;;;17.38;4.30;;;9.00;99.90;;;;;;6180200;23;20387;-82
2023/03/25 03:20:34;;;;;;;17.88;5.20;;;9.00;99.90;;;;;;6178938;23;20017;-82
2023/03/25 03:23:19;;;;;;;17.50;5.07;;;9.00;99.90;;;;;;6185680;23;20280;-81
2023/03/25 03:26:03;;;;;;;15.70;4.65;;;9.10;99.90;;;;;;6184596;23;20387;-81
2023/03/25 03:28:54;;;;;;;17.58;4.82;;;9.00;99.90;;;;;;6155418;23;20013;-82
2023/03/25 03:31:27;;;;;;;15.70;4.90;;;9.00;99.90;;;;;;6181109;23;20052;-82
2023/03/25 03:34:01;;;;;;;14.23;4.70;;;9.10;99.90;;;;;;6180819;23;20009;-81
2023/03/25 03:36:35;;;;;;;18.65;5.40;;;9.00;99.90;;;;;;6181520;23;20091;-82
2023/03/25 03:39:06;;;;;;;16.08;4.80;;;9.00;99.90;;;;;;6180942;23;20027;-82
2023/03/25 03:41:34;;;;;;;16.48;5.50;;;9.00;99.90;;;;;;6180349;23;20017;-81
2023/03/25 03:44:05;;;;;;;15.50;4.53;;;9.00;99.90;;;;;;6178266;23;20484;-82
2023/03/25 03:46:42;;;;;;;12.93;2.63;;;9.00;99.90;;;;;;6181325;23;20513;-82
2023/03/25 03:49:20;;;;;;;16.98;4.78;;;8.90;99.90;;;;;;6180810;23;20331;-81
2023/03/25 03:51:55;;;;;;;17.20;4.80;;;9.00;99.90;;;;;;6182203;23;20308;-82
2023/03/25 03:55:02;;;;;;;17.60;4.65;;;9.00;99.90;;;;;;6181667;23;20009;-82
2023/03/25 03:57:50;;;;;;;15.15;4.63;;;8.90;99.90;;;;;;6162083;23;20024;-81
2023/03/25 04:00:21;;;;;;;16.27;5.05;;;9.00;99.90;;;;;;6181272;23;20359;-81
2023/03/25 04:03:00;;;;;;;16.65;5.07;;;9.00;99.90;;;;;;6182754;23;20426;-81
2023/03/25 04:05:29;;;;;;;14.88;4.72;;;9.00;99.90;;;;;;6181904;23;20513;-81
2023/03/25 04:08:10;;;;;;;17.20;4.80;;;9.00;99.90;;;;;;6155430;23;20017;-81
2023/03/25 04:10:51;;;;;;;14.90;4.85;;;9.00;99.90;;;;;;6182696;23;20064;-82
2023/03/25 04:13:19;;;;;;;13.80;4.95;;;9.00;99.90;;;;;;6154461;23;20415;-82
2023/03/25 04:15:45;;;;;;;15.60;4.82;;;9.00;99.90;;;;;;6155064;23;20031;-82
2023/03/25 04:18:11;;;;;;;13.30;4.80;;;9.00;99.90;;;;;;6153794;23;20444;-81
2023/03/25 04:20:43;;;;;;;16.40;5.50;;;9.00;99.90;;;;;;6182071;23;20080;-82
2023/03/25 04:23:15;;;;;;;16.38;5.13;;;9.00;99.90;;;;;;6181668;23;20512;-82
2023/03/25 04:25:48;;;;;;;16.00;4.93;;;9.00;99.90;;;;;;6180846;23;20323;-82
2023/03/25 04:28:16;;;;;;;16.85;5.13;;;9.00;99.90;;;;;;6153611;23;20113;-82
2023/03/25 04:30:44;;;;;;;15.52;5.30;;;9.00;99.90;;;;;;6155122;23;20270;-82
2023/03/25 04:33:10;;;;;;;16.63;5.22;;;9.00;99.90;;;;;;6155226;23;20049;-82
2023/03/25 04:35:37;;;;;;;17.83;5.75;;;9.00;99.90;;;;;;6182525;23;20012;-82
2023/03/25 04:38:04;;;;;;;15.15;5.80;;;9.00;99.90;;;;;;6155184;23;20013;-82
2023/03/25 04:40:30;;;;;;;17.90;5.28;;;8.90;99.90;;;;;;6154719;23;20020;-82
2023/03/25 04:42:56;;;;;;;17.15;5.72;;;9.00;99.90;;;;;;6155335;23;20013;-82
2023/03/25 04:45:24;;;;;;;13.10;4.97;;;9.00;99.90;;;;;;6180336;23;20017;-82
2023/03/25 04:47:52;;;;;;;17.02;5.63;;;8.90;99.90;;;;;;6181665;23;20075;-82
2023/03/25 04:50:27;;;;;;;16.45;5.50;;;8.90;99.90;;;;;;6181005;23;20016;-82
2023/03/25 04:52:53;;;;;;;13.45;5.18;;;8.90;99.90;;;;;;6129674;23;20009;-82
2023/03/25 04:55:20;;;;;;;15.10;5.43;;;8.90;99.90;;;;;;6154439;23;20010;-82
2023/03/25 04:57:47;;;;;;;13.70;5.05;;;8.90;99.90;;;;;;6180430;23;20382;-81
2023/03/25 05:00:15;;;;;;;16.80;5.63;;;9.00;99.90;;;;;;6154120;23;20025;-82
2023/03/25 05:02:45;;;;;;;18.35;5.65;;;9.00;99.90;;;;;;6182672;23;20107;-82
2023/03/25 05:05:17;;;;;;;15.55;5.78;;;8.90;99.90;;;;;;6154602;23;20350;-81
2023/03/25 05:07:45;;;;;;;16.23;5.03;;;8.90;99.90;;;;;;6155997;23;20047;-82
2023/03/25 05:10:11;;;;;;;14.65;5.50;;;8.90;99.90;;;;;;6154751;23;20458;-82
2023/03/25 05:12:37;;;;;;;19.23;6.32;;;8.90;99.90;;;;;;6183397;23;20060;-82
2023/03/25 05:15:03;;;;;;;20.48;6.47;;;8.90;99.90;;;;;;6154654;23;20009;-82
2023/03/25 05:17:28;;;;;;;17.30;6.20;;;8.90;99.90;;;;;;6181187;23;20469;-82
2023/03/25 05:19:55;;;;;;;19.00;6.05;;;8.80;99.90;;;;;;6154510;23;20009;-82
2023/03/25 05:22:21;;;;;;;17.00;5.68;;;8.80;99.90;;;;;;6180627;23;20009;-82
2023/03/25 05:24:47;;;;;;;19.27;6.50;;;8.80;99.90;;;;;;6180696;23;20067;-83
2023/03/25 05:27:13;;;;;;;17.60;5.88;;;8.80;99.90;;;;;;6154265;23;20013;-82
2023/03/25 05:29:39;;;;;;;15.57;5.88;;;8.80;99.90;;;;;;6154907;23;20071;-81
2023/03/25 05:32:05;;;;;;;20.77;6.85;;;8.80;99.90;;;;;;6155552;23;20020;-83
2023/03/25 05:34:30;;;;;;;20.15;6.70;;;8.80;99.90;;;;;;6181495;23;20525;-82
2023/03/25 05:36:56;;;;;;;17.92;6.30;;;8.80;99.90;;;;;;6155572;23;20016;-82
2023/03/25 05:39:23;;;;;;;17.33;6.28;;;8.80;99.90;;;;;;6179756;23;20383;-82
2023/03/25 05:41:49;;;;;;;16.27;6.18;;;8.80;99.90;;;;;;6155607;23;20080;-83
2023/03/25 05:44:17;;;;;;;17.02;7.00;;;8.80;99.90;;;;;;6155795;23;20116;-83
2023/03/25 05:46:43;;;;;;;14.55;5.47;;;8.80;99.90;;;;;;6151776;23;20021;-85
2023/03/25 05:49:09;;;;;;;15.15;5.85;;;8.80;99.90;;;;;;6178229;23;20009;-82
2023/03/25 05:51:37;;;;;;;12.93;5.07;;;8.80;99.90;;;;;;6178818;23;20366;-83
2023/03/25 05:54:07;;;;;;;13.38;4.82;;;8.80;99.90;;;;;;6181413;23;20012;-85
2023/03/25 05:56:33;;;;;;;17.27;5.80;;;8.80;99.90;;;;;;6185378;23;20017;-84
2023/03/25 05:58:58;;;;;;;15.10;5.82;;;8.80;99.90;;;;;;6190359;23;20804;-85
2023/03/25 06:01:26;;;;;;;14.95;5.70;;;8.90;99.90;;;;;;6185930;23;20013;-83
2023/03/25 06:03:52;;;;;;;14.60;5.32;;;8.90;99.90;;;;;;6184453;23;20012;-83
2023/03/25 06:06:17;;;;;;;14.70;5.15;;;8.90;99.90;;;;;;6182964;23;20043;-83
2023/03/25 06:08:51;;;;;;;13.27;4.97;;;8.90;99.90;;;;;;6179846;23;20042;-83
2023/03/25 06:11:18;;;;;;;14.20;5.32;;;8.90;99.90;;;;;;6176006;23;20437;-82
2023/03/25 06:13:51;;;;;;;15.32;5.90;;;8.80;99.90;;;;;;6178718;23;20088;-85
2023/03/25 06:16:20;;;;;;;9.30;3.40;;;8.80;99.90;;;;;;6179763;23;20009;-85
2023/03/25 06:18:54;;;;;;;16.75;5.60;;;8.80;99.90;;;;;;6181861;23;20039;-83
2023/03/25 06:21:25;;;;;;;16.85;5.25;;;8.80;99.90;;;;;;6152347;23;20017;-83
2023/03/25 06:23:52;;;;;;;16.52;5.15;;;8.80;99.90;;;;;;6179287;23;20087;-83
2023/03/25 06:26:20;;;;;;;15.93;5.20;;;8.80;99.90;;;;;;6179432;23;20017;-83
2023/03/25 06:28:46;;;;;;;14.57;5.70;;;8.80;99.90;;;;;;6181477;23;20362;-83
2023/03/25 06:31:19;;;;;;;14.00;5.10;;;8.80;99.90;;;;;;6178916;23;20020;-83
2023/03/25 06:33:46;;;;;;;17.38;5.03;;;8.80;99.90;;;;;;6180615;23;20013;-83
2023/03/25 06:36:17;;;;;;;16.92;4.85;;;8.80;99.90;;;;;;6177386;23;20020;-83
2023/03/25 06:38:44;;;;;;;16.98;5.65;;;8.80;99.90;;;;;;6178439;23;20016;-82
2023/03/25 06:41:10;;;;;;;16.45;4.30;;;8.80;99.90;;;;;;6178076;23;20129;-83
2023/03/25 06:43:36;;;;;;;13.68;4.38;;;8.90;99.90;;;;;;6182103;23;20304;-84
2023/03/25 06:46:02;;;;;;;13.82;4.60;;;8.80;99.90;;;;;;6182369;23;20024;-85
2023/03/25 06:48:27;;;;;;;14.82;4.15;;;8.90;99.90;;;;;;6156711;23;20023;-84
2023/03/25 06:50:53;;;;;;;14.27;4.20;;;8.80;99.90;;;;;;6155839;23;20021;-83
2023/03/25 06:53:19;;;;;;;17.30;4.38;;;8.90;99.90;;;;;;6155173;23;20085;-83
2023/03/25 06:55:44;;;;;;;14.60;4.00;;;8.90;99.90;;;;;;6153713;23;20063;-84
2023/03/25 06:58:10;;;;;;;15.25;4.05;;;9.00;99.90;;;;;;6154239;23;20029;-82
2023/03/25 07:00:37;;;;;;;14.82;4.28;;;9.00;99.90;;;;;;6154644;23;20013;-83
2023/03/25 07:03:02;;;;;;;14.45;4.43;;;9.10;99.90;;;;;;6154149;23;20035;-83
2023/03/25 07:05:28;;;;;;;16.27;4.97;;;9.20;99.90;;;;;;6153506;23;20092;-83
2023/03/25 07:07:54;;;;;;;12.77;4.20;;;9.20;99.90;;;;;;6178377;23;20013;-81
2023/03/25 07:10:20;;;;;;;15.85;4.50;;;9.30;99.90;;;;;;6177163;23;20099;-88
2023/03/25 07:12:46;;;;;;;16.70;5.22;;;9.40;99.90;;;;;;6127376;23;20505;-84
2023/03/25 07:15:12;;;;;;;20.52;5.10;;;9.50;99.90;;;;;;6178585;23;20013;-82
2023/03/25 07:17:37;;;;;;;18.67;4.95;;;9.60;99.90;;;;;;6154255;23;20100;-81
2023/03/25 07:20:05;;;;;;;16.05;5.20;;;9.70;99.90;;;;;;6181210;23;20068;-83
2023/03/25 07:22:31;;;;;;;16.92;4.72;;;9.90;99.90;;;;;;6156333;23;20465;-82
2023/03/25 07:24:57;;;;;;;17.23;4.80;;;9.90;99.90;;;;;;6189416;23;20013;-83
2023/03/25 07:27:23;;;;;;;16.88;5.07;;;10.00;99.90;;;;;;6158976;23;20067;-84
2023/03/25 07:29:49;;;;;;;14.90;4.97;;;10.10;99.90;;;;;;6157098;23;20040;-85
2023/03/25 07:32:14;;;;;;;20.00;5.38;;;10.00;99.90;;;;;;6155758;23;20021;-84
2023/03/25 07:34:40;;;;;;;21.45;5.55;;;9.80;99.90;;;;;;6184554;23;20080;-84
2023/03/25 07:37:08;;;;;;;20.13;5.72;;;9.70;99.90;;;;;;6155849;23;20497;-85
2023/03/25 07:39:34;;;;;;;19.58;6.22;;;9.60;99.90;;;;;;6183201;23;20375;-85
2023/03/25 07:42:00;;;;;;;19.13;5.40;;;9.50;99.90;;;;;;6156670;23;20351;-84
2023/03/25 07:44:26;;;;;;;18.27;4.90;;;9.40;99.90;;;;;;6160540;23;20024;-85
2023/03/25 07:46:52;;;;;;;17.80;4.78;;;9.30;99.90;;;;;;6181872;23;20020;-85
2023/03/25 07:49:17;;;;;;;18.38;4.60;;;9.30;99.90;;;;;;6180655;23;20442;-85
2023/03/25 07:51:44;;;;;;;16.92;4.65;;;9.30;99.90;;;;;;6181097;23;20017;-85
2023/03/25 07:54:10;;;;;;;18.02;4.70;;;9.40;99.90;;;;;;6155737;23;20097;-85
2023/03/25 07:56:37;;;;;;;18.85;5.22;;;9.30;99.90;;;;;;6181983;23;20016;-84
2023/03/25 07:59:03;;;;;;;17.73;4.95;;;9.30;99.90;;;;;;6182022;23;20017;-85
2023/03/25 08:01:29;;;;;;;17.13;4.57;;;9.20;99.90;;;;;;6182829;23;20013;-84
2023/03/25 08:03:56;;;;;;;13.57;4.43;;;9.30;99.90;;;;;;6184333;23;20009;-84
2023/03/25 08:06:22;;;;;;;17.88;4.68;;;9.30;99.90;;;;;;6139193;23;20013;-84
2023/03/25 08:08:48;;;;;;;18.17;4.53;;;9.10;99.90;;;;;;6138170;23;20017;-85
2023/03/25 08:11:14;;;;;;;19.67;5.22;;;9.20;99.90;;;;;;6134007;23;20170;-84
2023/03/25 08:13:40;;;;;;;21.17;5.38;;;9.20;99.90;;;;;;6111222;23;20028;-85
2023/03/25 08:16:13;;;;;;;15.73;4.03;;;9.20;99.90;;;;;;6133267;23;20013;-86
2023/03/25 08:18:39;;;;;;;19.63;4.93;;;9.10;99.90;;;;;;6133180;23;20013;-86
2023/03/25 08:21:05;;;;;;;15.00;4.13;;;9.10;99.90;;;;;;6137490;23;20193;-86
2023/03/25 08:23:35;;;;;;;18.75;4.70;;;9.00;99.90;;;;;;6137777;23;20013;-86
2023/03/25 08:26:01;;;;;;;16.58;4.57;;;9.10;99.90;;;;;;6137138;23;20395;-86
2023/03/25 08:28:27;;;;;;;21.65;5.43;;;9.10;99.90;;;;;;6132933;23;20017;-85
2023/03/25 08:30:53;;;;;;;19.42;5.85;;;9.20;99.90;;;;;;6134756;23;20020;-85
2023/03/25 08:33:26;;;;;;;21.17;5.15;;;9.30;99.90;;;;;;6131662;23;20009;-83
2023/03/25 08:35:51;;;;;;;20.88;4.85;;;9.50;99.90;;;;;;6135166;23;20067;-85
2023/03/25 08:38:17;;;;;;;22.58;5.63;;;9.60;99.90;;;;;;6133409;23;20327;-84
2023/03/25 08:40:43;;;;;;;19.58;5.40;;;9.60;99.90;;;;;;6134395;23;20013;-85
2023/03/25 08:43:10;;;;;;;17.90;5.35;;;9.60;99.90;;;;;;6135357;23;20653;-84
2023/03/25 08:45:36;;;;;;;21.55;5.55;;;9.60;99.90;;;;;;6134126;23;20013;-86
2023/03/25 08:48:02;;;;;;;21.48;4.80;;;9.80;99.90;;;;;;6133758;23;20433;-85
2023/03/25 08:50:29;;;;;;;19.63;4.78;;;9.80;99.90;;;;;;6107993;23;20013;-84
2023/03/25 08:52:58;;;;;;;21.25;5.20;;;9.80;99.90;;;;;;6134673;23;20473;-84
2023/03/25 08:55:25;;;;;;;20.02;4.93;;;9.90;99.90;;;;;;6134904;23;20517;-85
2023/03/25 08:57:51;;;;;;;21.00;6.32;;;9.90;99.90;;;;;;6135429;23;20052;-84
2023/03/25 09:00:17;;;;;;;21.95;5.72;;;10.10;99.90;;;;;;6135403;23;20400;-85
2023/03/25 09:02:43;;;;;;;18.95;4.72;;;10.10;99.90;;;;;;6132379;23;20009;-84
2023/03/25 09:05:10;;;;;;;20.30;5.25;;;10.10;99.90;;;;;;6130969;23;20067;-84
2023/03/25 09:07:37;;;;;;;21.67;5.60;;;10.10;99.90;;;;;;6138416;23;20017;-84
2023/03/25 09:10:04;;;;;;;21.05;5.45;;;10.20;99.90;;;;;;6137351;23;20157;-85
2023/03/25 09:12:30;;;;;;;19.60;5.53;;;10.20;99.90;;;;;;6137082;23;20505;-84
2023/03/25 09:14:56;;;;;;;19.85;5.07;;;10.10;99.90;;;;;;6134542;23;20056;-82
2023/03/25 09:17:22;;;;;;;18.02;5.07;;;10.10;99.90;;;;;;6134219;23;20020;-84
2023/03/25 09:19:48;;;;;;;16.70;4.43;;;9.90;99.90;;;;;;6135026;23;20512;-84
2023/03/25 09:22:14;;;;;;;21.08;5.10;;;9.90;99.90;;;;;;6134832;23;20009;-84
2023/03/25 09:24:40;;;;;;;18.17;5.07;;;9.80;99.90;;;;;;6133651;23;20545;-84
2023/03/25 09:27:06;;;;;;;18.45;4.78;;;9.80;99.90;;;;;;6138815;23;20065;-82
2023/03/25 09:29:32;;;;;;;17.33;4.80;;;10.00;99.90;;;;;;6135699;23;20064;-84
2023/03/25 09:31:58;;;;;;;19.13;4.72;;;10.20;99.90;;;;;;6138928;23;20035;-83
2023/03/25 09:34:25;;;;;;;17.30;4.38;;;10.30;99.90;;;;;;6136497;23;20043;-84
2023/03/25 09:36:53;;;;;;;17.38;5.07;;;10.30;99.90;;;;;;6139302;23;20017;-83
2023/03/25 09:39:19;;;;;;;17.00;4.30;;;10.40;99.90;;;;;;6142572;23;20025;-84
2023/03/25 09:42:00;;;;;;;16.17;3.97;;;10.50;99.90;;;;;;6145563;23;20096;-83
2023/03/25 09:44:28;;;;;;;17.77;4.13;;;10.50;99.90;;;;;;6145919;23;20397;-84
2023/03/25 09:46:57;;;;;;;17.77;3.85;;;10.50;99.90;;;;;;6124201;23;20379;-84
2023/03/25 09:49:33;;;;;;;18.95;4.30;;;10.30;99.90;;;;;;6126828;23;20013;-84
2023/03/25 09:51:59;;;;;;;17.90;4.57;;;10.20;99.90;;;;;;6126002;23;20110;-83
2023/03/25 09:54:32;;;;;;;20.42;5.30;;;10.20;99.90;;;;;;6173780;23;20372;-84
2023/03/25 09:57:05;;;;;;;16.50;3.88;;;10.10;99.90;;;;;;6131355;23;20013;-83
2023/03/25 09:59:43;;;;;;;21.90;4.40;;;10.10;99.90;;;;;;6153979;23;20026;-85
2023/03/25 10:02:36;;;;;;;13.45;3.10;;;10.10;99.90;;;;;;6178751;23;20154;-83
2023/03/25 10:05:17;;;;;;;15.15;3.92;;;10.10;99.90;;;;;;6152050;23;20048;-84
2023/03/25 10:08:12;;;;;;;14.75;4.28;;;10.10;99.90;;;;;;6151528;23;20048;-84
2023/03/25 10:11:02;;;;;;;14.65;3.90;;;10.10;99.90;;;;;;6152070;23;20017;-83
2023/03/25 10:13:39;;;;;;;17.48;4.45;;;10.20;99.90;;;;;;6152729;23;20088;-84
2023/03/25 10:16:34;;;;;;;16.02;3.80;;;10.30;99.90;;;;;;6179268;23;20084;-84
2023/03/25 10:19:20;;;;;;;15.18;4.03;;;10.40;99.90;;;;;;6152077;23;20048;-84
2023/03/25 10:21:52;;;;;;;17.73;4.18;;;10.50;99.90;;;;;;6151852;23;20009;-83
2023/03/25 10:24:22;;;;;;;;;;;10.60;99.90;;;;;;6151604;23;20880;-85
2023/03/25 10:27:10;;;;;;;13.37;3.60;;;10.60;99.90;;;;;;6179519;23;19912;-84
2023/03/25 10:29:48;;;;;;;16.10;4.40;;;10.70;99.90;;;;;;6151237;23;20462;-84
2023/03/25 10:32:27;;;;;;;17.95;3.90;;;10.70;99.90;;;;;;6151372;23;20068;-84
2023/03/25 10:34:54;;;;;;;18.55;4.28;;;10.80;99.90;;;;;;6152598;23;20016;-84
2023/03/25 10:37:29;;;;;;;15.00;3.75;;;10.70;99.90;;;;;;6150909;23;20311;-83
2023/03/25 10:40:24;;;;;;;15.38;4.28;;;10.70;99.90;;;;;;6152787;23;20088;-84
2023/03/25 10:43:03;;;;;;;15.65;3.85;;;10.60;99.90;;;;;;6152707;23;20386;-83
2023/03/25 10:45:31;;;;;;;14.70;3.17;;;10.60;99.90;;;;;;6168933;23;20028;-84
2023/03/25 10:48:30;;;;;;;15.10;4.10;;;10.70;99.90;;;;;;6176703;23;20013;-84
2023/03/25 10:51:10;;;;;;;15.73;3.58;;;10.90;99.90;;;;;;6178985;23;20028;-84
2023/03/25 10:53:38;;;;;;;17.15;3.97;;;11.10;99.90;;;;;;6180211;23;20029;-83
2023/03/25 10:56:06;;;;;;;11.45;3.42;;;11.30;99.90;;;;;;6152627;23;20017;-84
2023/03/25 10:58:34;;;;;;;14.27;3.30;;;11.50;99.90;;;;;;6178749;23;20067;-84
2023/03/25 11:01:10;;;;;;;12.38;3.63;;;11.60;99.90;;;;;;6177570;23;20013;-83
2023/03/25 11:03:38;;;;;;;13.38;3.65;;;11.60;99.90;;;;;;6177228;23;20041;-83
2023/03/25 11:06:05;;;;;;;11.85;3.38;;;11.60;99.90;;;;;;6177466;23;20416;-83
2023/03/25 11:08:30;;;;;;;13.65;3.33;;;11.60;99.90;;;;;;6177260;23;20390;-84
2023/03/25 11:10:58;;;;;;;16.83;3.90;;;11.70;99.90;;;;;;6176927;23;20017;-85
2023/03/25 11:13:28;;;;;;;15.55;3.75;;;11.70;99.90;;;;;;6174460;23;20084;-85
2023/03/25 11:16:00;;;;;;;15.63;4.07;;;11.80;99.90;;;;;;6176581;23;20028;-84
2023/03/25 11:18:32;;;;;;;16.75;3.97;;;11.90;99.90;;;;;;6176264;23;20455;-84
2023/03/25 11:21:09;;;;;;;16.20;3.55;;;11.90;99.90;;;;;;6177060;23;20016;-85
2023/03/25 11:23:50;;;;;;;15.48;3.88;;;11.90;99.90;;;;;;6177285;23;20017;-85
2023/03/25 11:26:44;;;;;;;14.15;4.07;;;11.80;99.90;;;;;;6175080;23;20342;-84
2023/03/25 11:29:18;;;;;;;15.10;3.53;;;11.80;99.90;;;;;;6174267;23;20017;-84
2023/03/25 11:31:55;;;;;;;16.27;3.65;;;11.80;99.90;;;;;;6179325;23;20393;-82
2023/03/25 11:34:23;;;;;;;13.95;3.50;;;11.80;99.90;;;;;;6152650;23;20021;-84
2023/03/25 11:36:57;;;;;;;12.43;3.63;;;11.70;99.90;;;;;;6179303;23;20013;-84
2023/03/25 11:39:26;;;;;;;11.85;3.50;;;11.80;99.90;;;;;;6178342;23;20109;-84
2023/03/25 11:41:52;;;;;;;14.00;3.50;;;11.80;99.90;;;;;;6178706;23;20021;-83
2023/03/25 11:44:32;;;;;;;15.23;3.72;;;11.90;99.90;;;;;;6182499;23;20386;-84
2023/03/25 11:47:03;;;;;;;13.25;3.28;;;11.80;99.90;;;;;;6165379;23;20024;-84
2023/03/25 11:49:34;;;;;;;14.10;3.03;;;11.80;99.90;;;;;;6190173;23;20311;-85
2023/03/25 11:52:04;;;;;;;13.40;3.28;;;11.80;99.90;;;;;;6155808;23;20458;-86
2023/03/25 11:54:32;;;;;;;18.00;3.47;;;11.80;99.90;;;;;;6152747;23;20028;-82
2023/03/25 11:56:58;;;;;;;12.93;3.90;;;11.90;99.90;;;;;;6180810;23;20085;-84
2023/03/25 11:59:32;;;;;;;14.55;3.50;;;12.00;99.90;;;;;;6182049;23;20068;-84
2023/03/25 12:02:14;;;;;;;17.45;3.67;;;11.90;99.90;;;;;;6154647;23;20052;-84
2023/03/25 12:05:00;;;;;;;13.38;3.60;;;11.90;99.90;;;;;;6154923;23;20067;-84
2023/03/25 12:07:26;;;;;;;13.48;2.85;;;11.90;99.90;;;;;;6153684;23;20036;-84
2023/03/25 12:09:55;;;;;;;14.40;3.63;;;11.90;99.90;;;;;;6154471;23;20017;-83
2023/03/25 12:12:41;;;;;;;15.10;3.70;;;12.00;99.90;;;;;;6178301;23;20013;-83
2023/03/25 12:15:20;;;;;;;12.68;3.05;;;12.00;99.90;;;;;;6153140;23;20013;-84
2023/03/25 12:18:16;;;;;;;14.98;3.30;;;12.00;99.90;;;;;;6152774;23;20493;-84
2023/03/25 12:21:08;;;;;;;11.98;3.13;;;11.90;99.90;;;;;;6179511;23;20449;-84
2023/03/25 12:24:01;;;;;;;14.60;3.55;;;11.80;99.90;;;;;;6180379;23;20069;-86
2023/03/25 12:26:51;;;;;;;13.10;3.20;;;11.70;99.90;;;;;;6152447;23;20167;-83
2023/03/25 12:29:25;;;;;;;12.90;2.78;;;11.70;99.90;;;;;;6178770;23;20132;-83
2023/03/25 12:32:25;;;;;;;13.80;3.78;;;11.60;99.90;;;;;;6153677;23;20017;-86
2023/03/25 12:35:16;;;;;;;14.35;3.40;;;11.50;99.90;;;;;;6152778;23;20341;-84
2023/03/25 12:38:00;;;;;;;14.27;3.30;;;11.50;99.90;;;;;;6153033;23;20017;-83
2023/03/25 12:40:32;;;;;;;14.68;3.45;;;11.70;99.90;;;;;;6178269;23;20027;-84
2023/03/25 12:43:09;;;;;;;13.13;3.60;;;11.70;99.90;;;;;;6152960;23;20334;-84
2023/03/25 12:45:59;;;;;;;16.63;3.28;;;11.80;99.90;;;;;;6180040;23;20020;-85
2023/03/25 12:48:33;;;;;;;12.90;2.92;;;11.90;99.90;;;;;;6152490;23;20021;-85
2023/03/25 12:51:17;;;;;;;12.50;3.35;;;12.00;99.90;;;;;;6179212;23;20013;-84
2023/03/25 12:54:01;;;;;;;15.68;3.17;;;12.00;99.90;;;;;;6180190;23;20036;-84
2023/03/25 12:56:42;;;;;;;13.73;2.83;;;12.00;99.90;;;;;;6152144;23;20044;-85
2023/03/25 12:59:22;;;;;;;10.60;2.63;;;11.90;99.90;;;;;;6153194;23;20371;-85
2023/03/25 13:01:51;;;;;;;15.05;2.70;;;11.90;99.90;;;;;;6180614;23;20044;-84
2023/03/25 13:04:25;;;;;;;13.40;3.40;;;11.80;99.90;;;;;;6152193;23;20013;-84